KCEF/CEF METAR and TAF weather

Enter ICAO airport designator
Station Type Date Time Source
KCEF METAR 2024/04/17 13:55 UTC NOAA

KCEF 171355Z 17004KT 10SM FEW150 SCT200 SCT250 11/01 A3018 RMK AO2A SLP226 T01140005


Station Type Date Time Source
KCEF Decoded METAR 2024/04/17 13:55 UTC NOAA

Chicopee Falls / Westover Air Force Base, MA, United States (KCEF) 42-12N 072-32W 75M
Apr 17, 2024 - 09:55 AM EDT / 2024.04.17 1355 UTC
Wind: from the S (170 degrees) at 5 MPH (4 KT):0
Visibility: 10 mile(s):0
Sky conditions: partly cloudy
Temperature: 52.5 F (11.4 C)
Dew Point: 32.9 F (0.5 C)
Relative Humidity: 47%
Pressure (altimeter): 30.18 in. Hg (1022 hPa)
ob: KCEF 171355Z 17004KT 10SM FEW150 SCT200 SCT250 11/01 A3018 RMK AO2A SLP226 T01140005
cycle: 14

Station Type Date Time Source
KCEF TAF 2024/04/17 12:16 UTC NOAA